Main page
METAR-TAF:

METAR-TAF

Airports :

JAGS McCartney International Airport

Grand Turk Island, Turks and Caicos Islands

latitude: 21-26-40N, longitude: 071-08-32W, elevation: 4 m

Current weather observation

The report was made 3 hours and 30 minutes ago, at 19:00 UTC
Wind 8 kt from the East
Temperature 31°C
Humidity 75%
Pressure 1014 hPa
Visibility 10 km or more
Scattered clouds at a height of 1800 ft
Scattered clouds at a height of 5000 ft

METAR: MBGT 181900Z 08008KT 9999 SCT018 SCT050 31/26 Q1014

Time: 18:30 (22:30 UTC)

Forecast

The report was made 4 hours and 27 minutes ago, at 18:03 UTC
Forecast valid from 18 at 18 UTC to 19 at 18 UTC
Wind 12 kt from the East
Visibility 10 km or more
Scattered clouds at a height of 1800 ft
showers in vicinity,

TAF: MBGT 181803Z 1818/1918 08012KT 9999 VCSH SCT018

Weather observations and forecasts of more than 4000 airports (METAR and TAF reports).

The available stations are represented by yellow and red dots on the map.

Hover mouse over dot to see the name of the station.

Then click to see weather observations and forecasts.

To change the map : click on the green buttons with a black cross to zoom in, on the green button with a dash to zoom out, or on the green arrows for adjacent maps.


METAR-TAF: